Time;durP1;ratioP1;P1;durP2;ratioP2;P2;SDS_P1;SDS_P2;PMS_P1;PMS_P2;Temp;Humidity;BMP_temperature;BMP_pressure;BME280_temperature;BME280_humidity;BME280_pressure;Samples;Min_cycle;Max_cycle;Signal;HPM_P1;HPM_P2
2022/10/13 00:01:15;;;;;;;16.60;7.07;;;18.60;99.90;;;;;;5098644;28;20104;-73
2022/10/13 00:03:47;;;;;;;12.02;7.88;;;18.60;99.90;;;;;;5066405;28;20055;-70
2022/10/13 00:06:24;;;;;;;17.98;8.85;;;18.60;99.90;;;;;;5049941;28;20044;-74
2022/10/13 00:08:53;;;;;;;12.55;8.40;;;18.60;99.90;;;;;;5053258;28;20067;-71
2022/10/13 00:11:24;;;;;;;11.88;8.23;;;18.60;99.90;;;;;;5094796;28;20374;-77
2022/10/13 00:13:56;;;;;;;11.52;7.40;;;18.60;99.90;;;;;;5073627;28;20082;-70
2022/10/13 00:16:25;;;;;;;14.15;7.72;;;18.60;99.90;;;;;;5057069;28;20062;-74
2022/10/13 00:18:52;;;;;;;11.00;7.78;;;18.60;99.90;;;;;;5059030;28;20083;-75
2022/10/13 00:21:24;;;;;;;11.88;7.45;;;18.60;99.90;;;;;;5109180;28;20058;-76
2022/10/13 00:23:53;;;;;;;11.57;9.10;;;18.60;99.90;;;;;;5067796;28;20867;-70
2022/10/13 00:26:22;;;;;;;9.52;7.20;;;18.60;99.90;;;;;;5068612;28;20048;-69
2022/10/13 00:28:50;;;;;;;9.00;6.55;;;18.60;99.90;;;;;;5073697;28;20040;-69
2022/10/13 00:31:30;;;;;;;10.07;6.40;;;18.60;99.90;;;;;;5099493;28;20103;-69
2022/10/13 00:34:00;;;;;;;10.13;7.18;;;18.60;99.90;;;;;;5099029;28;20049;-70
2022/10/13 00:36:29;;;;;;;11.20;6.80;;;18.60;99.90;;;;;;5085028;28;20352;-72
2022/10/13 00:38:57;;;;;;;9.02;7.10;;;18.60;99.90;;;;;;5088591;28;20098;-70
2022/10/13 00:41:25;;;;;;;10.85;6.68;;;18.60;99.90;;;;;;5085942;28;20060;-69
2022/10/13 00:44:05;;;;;;;9.38;5.85;;;18.60;99.90;;;;;;5069817;28;20052;-70
2022/10/13 00:46:36;;;;;;;8.90;5.75;;;18.60;99.90;;;;;;5110470;28;20424;-70
2022/10/13 00:49:07;;;;;;;10.48;6.65;;;18.60;99.90;;;;;;5095145;28;20046;-70
2022/10/13 00:51:40;;;;;;;11.52;7.00;;;18.60;99.90;;;;;;5076199;28;20378;-70
2022/10/13 00:54:10;;;;;;;10.63;6.28;;;18.60;99.90;;;;;;5071957;28;20432;-72
2022/10/13 00:56:39;;;;;;;8.82;6.25;;;18.70;99.90;;;;;;5067805;28;20059;-70
2022/10/13 00:59:13;;;;;;;8.32;6.03;;;18.60;99.90;;;;;;5076433;28;20056;-70
2022/10/13 01:01:41;;;;;;;9.90;6.15;;;18.60;99.90;;;;;;5078546;28;20626;-75
2022/10/13 01:04:09;;;;;;;8.00;5.57;;;18.60;99.90;;;;;;5069150;28;20048;-70
2022/10/13 01:06:37;;;;;;;7.90;5.32;;;18.70;99.90;;;;;;5036181;28;20048;-70
2022/10/13 01:09:07;;;;;;;8.65;6.28;;;18.70;99.90;;;;;;5052369;28;20040;-74
2022/10/13 01:12:25;;;;;;;7.60;5.70;;;18.70;99.90;;;;;;5069726;28;20087;-70
2022/10/13 01:15:40;;;;;;;8.05;5.28;;;18.70;99.90;;;;;;5052226;28;20115;-70
2022/10/13 01:18:44;;;;;;;8.02;5.20;;;18.70;99.90;;;;;;5048665;28;20865;-70
2022/10/13 01:21:32;;;;;;;7.95;4.95;;;18.70;99.90;;;;;;5034186;28;20056;-74
2022/10/13 01:24:18;;;;;;;;;;;18.70;99.90;;;;;;5036530;28;20403;-71
2022/10/13 01:27:12;;;;;;;8.68;6.13;;;18.70;99.90;;;;;;5069315;28;19934;-71
2022/10/13 01:30:02;;;;;;;9.52;5.55;;;18.60;99.90;;;;;;5053588;28;20486;-75
2022/10/13 01:32:50;;;;;;;8.30;5.63;;;18.60;99.90;;;;;;5053460;28;20123;-71
2022/10/13 01:35:30;;;;;;;7.70;5.70;;;18.60;99.90;;;;;;5070735;28;20051;-70
2022/10/13 01:38:39;;;;;;;9.10;5.40;;;18.60;99.90;;;;;;5069336;28;20044;-70
2022/10/13 01:41:37;;;;;;;8.05;5.88;;;18.60;99.90;;;;;;5052176;28;20494;-70
2022/10/13 01:44:33;;;;;;;7.93;5.40;;;18.60;99.90;;;;;;5070042;28;20467;-70
2022/10/13 01:47:02;;;;;;;9.20;5.80;;;18.60;99.90;;;;;;5051820;28;20037;-70
2022/10/13 01:49:34;;;;;;;9.27;5.38;;;18.60;99.90;;;;;;5067691;28;20056;-70
2022/10/13 01:52:06;;;;;;;8.32;5.18;;;18.60;99.90;;;;;;5069159;28;20044;-70
2022/10/13 01:54:34;;;;;;;7.78;5.13;;;18.60;99.90;;;;;;5068668;28;20127;-74
2022/10/13 01:57:02;;;;;;;7.30;4.88;;;18.60;99.90;;;;;;5056957;28;20521;-70
2022/10/13 01:59:34;;;;;;;6.68;4.68;;;18.50;99.90;;;;;;5072473;28;20142;-82
2022/10/13 02:02:18;;;;;;;7.35;5.38;;;18.60;99.90;;;;;;5092468;28;20058;-71
2022/10/13 02:04:48;;;;;;;7.35;5.07;;;18.50;99.90;;;;;;5075891;28;20048;-70
2022/10/13 02:07:43;;;;;;;6.57;5.03;;;18.50;99.90;;;;;;5091300;28;20032;-70
2022/10/13 02:10:30;;;;;;;8.45;5.78;;;18.50;99.90;;;;;;5091929;28;20044;-73
2022/10/13 02:13:08;;;;;;;8.00;5.22;;;18.50;99.90;;;;;;5060226;28;20139;-70
2022/10/13 02:15:44;;;;;;;6.65;4.68;;;18.50;99.90;;;;;;5093487;28;20039;-70
2022/10/13 02:18:14;;;;;;;8.35;4.93;;;18.50;99.90;;;;;;5093212;28;20230;-71
2022/10/13 02:20:44;;;;;;;6.40;4.57;;;18.60;99.90;;;;;;5092776;28;20051;-70
2022/10/13 02:23:15;;;;;;;6.38;4.47;;;18.60;99.90;;;;;;5091696;28;20036;-73
2022/10/13 02:25:43;;;;;;;6.90;5.22;;;18.60;99.90;;;;;;5072834;28;20109;-75
2022/10/13 02:28:13;;;;;;;6.22;4.50;;;18.60;99.90;;;;;;5092374;28;20048;-71
2022/10/13 02:30:44;;;;;;;7.45;5.10;;;18.50;99.90;;;;;;5092412;28;20048;-70
2022/10/13 02:33:13;;;;;;;7.30;5.47;;;18.50;99.90;;;;;;5092865;28;20150;-70
2022/10/13 02:35:42;;;;;;;7.30;5.28;;;18.50;99.90;;;;;;5092869;28;20413;-70
2022/10/13 02:38:10;;;;;;;8.27;5.28;;;18.50;99.90;;;;;;5058722;28;20062;-73
2022/10/13 02:40:38;;;;;;;10.35;5.78;;;18.50;99.90;;;;;;5075579;28;20489;-70
2022/10/13 02:43:05;;;;;;;7.30;5.25;;;18.50;99.90;;;;;;5058267;28;20121;-70
2022/10/13 02:45:33;;;;;;;6.93;4.70;;;18.50;99.90;;;;;;5074431;28;20139;-71
2022/10/13 02:48:01;;;;;;;7.60;5.40;;;18.50;99.90;;;;;;5073934;28;20336;-71
2022/10/13 02:50:29;;;;;;;6.97;4.13;;;18.50;99.90;;;;;;5059148;28;20094;-70
2022/10/13 02:52:58;;;;;;;8.00;5.43;;;18.50;99.90;;;;;;5075670;28;20043;-74
2022/10/13 02:55:25;;;;;;;7.82;4.82;;;18.50;99.90;;;;;;5080652;28;20044;-70
2022/10/13 02:57:55;;;;;;;7.75;5.80;;;18.50;99.90;;;;;;5071987;28;20065;-70
2022/10/13 03:00:24;;;;;;;7.47;6.00;;;18.40;99.90;;;;;;5071479;28;20079;-74
2022/10/13 03:02:52;;;;;;;8.45;5.35;;;18.50;99.90;;;;;;5054690;28;20044;-70
2022/10/13 03:05:20;;;;;;;6.53;5.38;;;18.50;99.90;;;;;;5071045;28;20114;-70
2022/10/13 03:07:48;;;;;;;8.05;5.28;;;18.50;99.90;;;;;;5055011;28;20040;-70
2022/10/13 03:10:16;;;;;;;9.32;5.45;;;18.50;99.90;;;;;;5071803;28;20509;-70
2022/10/13 03:12:43;;;;;;;8.77;5.20;;;18.50;99.90;;;;;;5054591;28;20048;-70
2022/10/13 03:15:11;;;;;;;8.77;5.55;;;18.50;99.90;;;;;;5071685;28;20079;-70
2022/10/13 03:17:39;;;;;;;9.55;5.45;;;18.50;99.90;;;;;;5071167;28;20779;-70
2022/10/13 03:20:07;;;;;;;10.68;6.53;;;18.50;99.90;;;;;;5071838;28;20379;-70
2022/10/13 03:22:35;;;;;;;8.35;5.10;;;18.50;99.90;;;;;;5038172;28;20051;-71
2022/10/13 03:25:03;;;;;;;7.70;5.18;;;18.50;99.90;;;;;;5071313;28;20431;-70
2022/10/13 03:27:31;;;;;;;8.93;5.85;;;18.50;99.90;;;;;;5070850;28;20064;-70
2022/10/13 03:29:59;;;;;;;9.68;6.57;;;18.50;99.90;;;;;;5070694;28;20044;-71
2022/10/13 03:32:30;;;;;;;6.97;4.75;;;18.50;99.90;;;;;;5070675;28;20394;-70
2022/10/13 03:34:58;;;;;;;7.05;5.25;;;18.50;99.90;;;;;;5072532;28;20055;-73
2022/10/13 03:37:29;;;;;;;9.75;5.13;;;18.50;99.90;;;;;;5054337;28;20040;-74
2022/10/13 03:39:56;;;;;;;8.65;5.63;;;18.50;99.90;;;;;;5072588;28;20266;-70
2022/10/13 03:42:24;;;;;;;9.05;6.72;;;18.50;99.90;;;;;;5054826;28;20052;-71
2022/10/13 03:44:52;;;;;;;7.40;4.95;;;18.50;99.90;;;;;;5055302;28;20063;-70
2022/10/13 03:47:22;;;;;;;9.35;5.90;;;18.50;99.90;;;;;;5053813;28;20040;-71
2022/10/13 03:49:53;;;;;;;8.95;5.20;;;18.50;99.90;;;;;;5054048;28;20056;-72
2022/10/13 03:52:21;;;;;;;9.50;5.20;;;18.40;99.90;;;;;;5053893;28;20052;-70
2022/10/13 03:54:49;;;;;;;7.63;5.93;;;18.40;99.90;;;;;;5053766;28;20045;-71
2022/10/13 03:57:17;;;;;;;7.50;4.97;;;18.40;99.90;;;;;;5053847;28;20048;-71
2022/10/13 03:59:45;;;;;;;8.90;6.25;;;18.40;99.90;;;;;;5070361;28;20143;-70
2022/10/13 04:02:13;;;;;;;7.38;5.25;;;18.40;99.90;;;;;;5054399;28;20127;-70
2022/10/13 04:04:40;;;;;;;7.05;5.15;;;18.40;99.90;;;;;;5071133;28;20071;-70
2022/10/13 04:07:08;;;;;;;9.70;6.53;;;18.30;99.90;;;;;;5070512;28;20439;-78
2022/10/13 04:09:36;;;;;;;10.10;7.30;;;18.20;99.90;;;;;;5054675;28;20044;-70
2022/10/13 04:12:05;;;;;;;10.93;7.38;;;18.20;99.90;;;;;;5054402;28;20053;-70
2022/10/13 04:14:33;;;;;;;10.10;6.47;;;18.20;99.90;;;;;;5038020;28;20053;-70
2022/10/13 04:17:07;;;;;;;11.88;5.82;;;18.10;99.90;;;;;;5054661;28;20085;-73
2022/10/13 04:19:35;;;;;;;8.50;5.72;;;18.00;99.90;;;;;;5054525;28;20048;-74
2022/10/13 04:22:05;;;;;;;10.68;7.45;;;18.00;99.90;;;;;;5070610;28;20409;-70
2022/10/13 04:24:33;;;;;;;9.05;6.05;;;18.00;99.90;;;;;;5070822;28;20036;-70
2022/10/13 04:27:00;;;;;;;9.10;6.65;;;17.90;99.90;;;;;;5070185;28;20048;-78
2022/10/13 04:29:28;;;;;;;8.98;5.95;;;17.90;99.90;;;;;;5071667;28;20037;-70
2022/10/13 04:31:58;;;;;;;7.20;5.57;;;17.90;99.90;;;;;;5071158;28;20037;-70
2022/10/13 04:34:26;;;;;;;8.45;5.72;;;17.90;99.90;;;;;;5070215;28;20063;-74
2022/10/13 04:36:54;;;;;;;11.02;7.07;;;17.90;99.90;;;;;;5071232;28;20048;-70
2022/10/13 04:39:22;;;;;;;9.32;5.80;;;17.90;99.90;;;;;;5070161;28;20040;-70
2022/10/13 04:41:50;;;;;;;10.55;6.20;;;17.90;99.90;;;;;;5070144;28;20125;-75
2022/10/13 04:44:18;;;;;;;8.35;6.00;;;17.90;99.90;;;;;;5067846;28;20051;-71
2022/10/13 04:46:45;;;;;;;8.38;6.45;;;17.90;99.90;;;;;;5051487;28;20040;-70
2022/10/13 04:49:14;;;;;;;12.00;6.20;;;17.90;99.90;;;;;;5069420;28;20155;-71
2022/10/13 04:51:42;;;;;;;9.63;7.47;;;17.90;99.90;;;;;;5053030;28;20498;-70
2022/10/13 04:54:10;;;;;;;9.77;6.72;;;18.00;99.90;;;;;;5052927;28;20139;-70
2022/10/13 04:56:38;;;;;;;9.57;6.45;;;18.00;99.90;;;;;;5052434;28;20041;-71
2022/10/13 04:59:06;;;;;;;12.88;7.32;;;18.00;99.90;;;;;;5069873;28;20036;-75
2022/10/13 05:01:34;;;;;;;8.68;6.05;;;18.00;99.90;;;;;;5036492;28;20059;-73
2022/10/13 05:04:05;;;;;;;10.18;7.07;;;18.10;99.90;;;;;;5053519;28;20473;-79
2022/10/13 05:06:38;;;;;;;12.45;8.50;;;18.10;99.90;;;;;;5036416;28;20064;-74
2022/10/13 05:09:15;;;;;;;12.07;7.07;;;18.10;99.90;;;;;;5069499;28;20067;-70
2022/10/13 05:11:42;;;;;;;9.77;6.47;;;18.10;99.90;;;;;;5036775;28;20119;-71
2022/10/13 05:14:10;;;;;;;9.27;6.00;;;18.10;99.90;;;;;;5069264;28;20082;-75
2022/10/13 05:16:38;;;;;;;7.72;5.82;;;18.10;99.90;;;;;;5068804;28;20128;-70
2022/10/13 05:19:07;;;;;;;10.15;7.57;;;18.20;99.90;;;;;;5052868;28;20068;-70
2022/10/13 05:21:35;;;;;;;10.15;6.40;;;18.20;99.90;;;;;;5052952;28;20060;-70
2022/10/13 05:24:04;;;;;;;10.40;6.57;;;18.20;99.90;;;;;;5052440;28;20477;-70
2022/10/13 05:26:35;;;;;;;10.77;7.40;;;18.20;99.90;;;;;;5052359;28;20084;-71
2022/10/13 05:29:03;;;;;;;10.68;7.38;;;18.20;99.90;;;;;;5052204;28;20060;-70
2022/10/13 05:31:32;;;;;;;9.38;7.18;;;18.30;99.90;;;;;;5069611;28;20044;-71
2022/10/13 05:34:00;;;;;;;10.75;7.38;;;18.30;99.90;;;;;;5036486;28;20080;-70
2022/10/13 05:36:30;;;;;;;11.32;7.15;;;18.30;99.90;;;;;;5053192;28;20414;-70
2022/10/13 05:39:00;;;;;;;9.65;6.43;;;18.30;99.90;;;;;;5070333;28;20166;-70
2022/10/13 05:41:29;;;;;;;9.77;8.38;;;18.30;99.90;;;;;;5069355;28;20044;-77
2022/10/13 05:44:02;;;;;;;10.05;7.07;;;18.30;99.90;;;;;;5068573;28;20450;-72
2022/10/13 05:46:30;;;;;;;13.63;7.65;;;18.30;99.90;;;;;;5072588;28;20067;-82
2022/10/13 05:48:58;;;;;;;11.13;8.07;;;18.30;99.90;;;;;;5076896;28;20563;-71
2022/10/13 05:51:31;;;;;;;13.20;8.68;;;18.40;99.90;;;;;;5082063;28;20397;-71
2022/10/13 05:54:14;;;;;;;11.15;7.68;;;18.40;99.90;;;;;;5093428;28;20093;-78
2022/10/13 05:56:56;;;;;;;13.70;7.25;;;18.40;99.90;;;;;;5081277;28;20048;-70
2022/10/13 05:59:27;;;;;;;15.02;6.47;;;18.40;99.90;;;;;;5079233;28;20036;-72
2022/10/13 06:01:55;;;;;;;10.77;6.55;;;18.40;99.90;;;;;;5099336;28;20155;-74
2022/10/13 06:04:30;;;;;;;10.55;6.72;;;18.40;99.90;;;;;;5082978;28;20074;-72
2022/10/13 06:06:58;;;;;;;8.88;6.20;;;18.50;99.90;;;;;;5077998;28;20047;-71
2022/10/13 06:09:36;;;;;;;12.70;7.20;;;18.50;99.90;;;;;;5078346;28;20079;-74
2022/10/13 06:12:05;;;;;;;9.57;6.55;;;18.60;99.90;;;;;;5107275;28;20031;-72
2022/10/13 06:14:33;;;;;;;11.00;6.28;;;18.60;99.90;;;;;;5092473;28;20512;-70
2022/10/13 06:17:05;;;;;;;9.75;6.22;;;18.60;99.90;;;;;;5066681;28;20045;-70
2022/10/13 06:19:33;;;;;;;12.45;6.78;;;18.70;99.90;;;;;;5087853;28;20037;-80
2022/10/13 06:22:06;;;;;;;11.05;6.93;;;18.70;99.90;;;;;;5051321;28;20052;-73
2022/10/13 06:24:34;;;;;;;14.95;8.13;;;18.80;99.90;;;;;;5060531;28;20055;-72
2022/10/13 06:27:03;;;;;;;11.15;8.05;;;18.70;99.90;;;;;;5107811;28;20473;-77
2022/10/13 06:29:32;;;;;;;11.23;7.15;;;18.70;99.90;;;;;;5075723;28;20049;-74
2022/10/13 06:32:00;;;;;;;13.38;7.28;;;18.80;99.90;;;;;;5094322;28;20133;-72
2022/10/13 06:34:27;;;;;;;12.00;8.93;;;18.80;99.90;;;;;;5096947;28;20498;-69
2022/10/13 06:36:55;;;;;;;11.63;7.80;;;18.80;99.90;;;;;;5066352;28;20047;-70
2022/10/13 06:39:23;;;;;;;12.40;7.10;;;18.90;99.90;;;;;;5080517;28;20091;-72
2022/10/13 06:41:51;;;;;;;11.98;7.28;;;18.90;99.90;;;;;;5106803;28;20044;-70
2022/10/13 06:44:19;;;;;;;10.93;7.40;;;19.00;99.90;;;;;;5072435;28;20740;-78
2022/10/13 06:46:47;;;;;;;9.98;6.70;;;19.00;99.90;;;;;;5089830;28;20048;-70
2022/10/13 06:49:14;;;;;;;8.43;6.68;;;19.20;99.90;;;;;;5074790;28;20040;-70
2022/10/13 06:51:42;;;;;;;9.13;5.95;;;19.30;99.90;;;;;;5093676;28;20052;-71
2022/10/13 06:54:09;;;;;;;11.75;7.25;;;19.40;99.90;;;;;;5092136;28;20040;-70
2022/10/13 06:56:37;;;;;;;12.10;7.65;;;19.50;99.90;;;;;;5092532;28;20068;-70
2022/10/13 06:59:10;;;;;;;9.15;6.95;;;19.60;99.90;;;;;;5093768;28;20151;-85
2022/10/13 07:01:38;;;;;;;10.50;6.20;;;19.60;99.90;;;;;;5074856;28;20048;-70
2022/10/13 07:04:11;;;;;;;12.52;6.32;;;19.70;99.90;;;;;;5089529;28;20047;-74
2022/10/13 07:06:40;;;;;;;10.25;6.53;;;19.70;99.90;;;;;;5056446;28;20044;-70
2022/10/13 07:09:08;;;;;;;8.35;5.75;;;19.80;99.90;;;;;;5091733;28;20135;-70
2022/10/13 07:11:35;;;;;;;7.90;5.50;;;19.80;99.90;;;;;;5091579;28;20043;-70
2022/10/13 07:14:03;;;;;;;7.97;5.38;;;19.90;99.90;;;;;;5091820;28;20127;-70
2022/10/13 07:16:31;;;;;;;9.07;5.35;;;19.90;99.90;;;;;;5058912;28;20139;-71
2022/10/13 07:19:00;;;;;;;9.07;5.68;;;19.90;99.90;;;;;;5075355;28;20184;-71
2022/10/13 07:21:29;;;;;;;9.20;4.85;;;19.90;99.90;;;;;;5074752;28;20501;-74
2022/10/13 07:23:57;;;;;;;7.80;5.95;;;19.90;99.90;;;;;;5091025;28;20040;-70
2022/10/13 07:26:27;;;;;;;8.77;5.47;;;20.00;99.90;;;;;;5075727;28;20067;-70
2022/10/13 07:28:55;;;;;;;13.05;5.85;;;20.10;99.90;;;;;;5091161;28;20371;-70
2022/10/13 07:31:22;;;;;;;9.65;4.43;;;20.10;99.90;;;;;;5058443;28;20052;-70
2022/10/13 07:33:51;;;;;;;8.85;5.90;;;20.20;99.90;;;;;;5058291;28;20052;-70
2022/10/13 07:36:22;;;;;;;10.68;6.57;;;20.30;99.90;;;;;;5074786;28;20071;-70
2022/10/13 07:38:52;;;;;;;9.13;5.10;;;20.40;99.90;;;;;;5075457;28;20177;-75
2022/10/13 07:41:19;;;;;;;8.75;5.82;;;20.30;99.90;;;;;;5073823;28;20162;-71
2022/10/13 07:43:48;;;;;;;8.52;5.03;;;20.30;99.90;;;;;;5057778;28;20102;-70
2022/10/13 07:46:15;;;;;;;6.45;4.85;;;20.30;99.90;;;;;;5054495;28;20067;-78
2022/10/13 07:48:43;;;;;;;7.53;5.05;;;20.20;99.90;;;;;;5073419;28;20146;-71
2022/10/13 07:51:12;;;;;;;11.02;7.13;;;20.30;99.90;;;;;;5056761;28;20338;-71
2022/10/13 07:53:41;;;;;;;11.02;8.18;;;20.30;99.90;;;;;;5090460;28;20490;-71
2022/10/13 07:56:11;;;;;;;12.77;7.80;;;20.50;99.90;;;;;;5074018;28;20120;-71
2022/10/13 07:58:43;;;;;;;11.93;7.63;;;20.70;99.90;;;;;;5056473;28;20563;-70
2022/10/13 08:01:11;;;;;;;10.07;7.20;;;20.70;99.90;;;;;;5074171;28;20084;-71
2022/10/13 08:03:40;;;;;;;9.48;6.47;;;20.90;99.90;;;;;;5090760;28;20154;-70
2022/10/13 08:06:08;;;;;;;6.15;4.65;;;20.80;99.90;;;;;;5073645;28;20481;-78
2022/10/13 08:08:37;;;;;;;6.72;4.95;;;20.70;99.90;;;;;;5090248;28;20369;-71
2022/10/13 08:11:10;;;;;;;7.45;4.70;;;20.60;99.90;;;;;;5090657;28;20044;-71
2022/10/13 08:13:38;;;;;;;8.60;4.57;;;20.60;99.90;;;;;;5090464;28;20043;-71
2022/10/13 08:16:12;;;;;;;10.82;8.30;;;20.60;99.90;;;;;;5089212;28;20052;-70
2022/10/13 08:18:40;;;;;;;14.18;9.40;;;20.60;99.90;;;;;;5077170;28;20072;-70
2022/10/13 08:21:11;;;;;;;13.13;8.32;;;20.60;99.90;;;;;;5070730;28;20074;-70
2022/10/13 08:23:59;;;;;;;12.43;6.95;;;20.60;99.90;;;;;;5056098;28;20040;-70
2022/10/13 08:26:28;;;;;;;10.45;7.45;;;20.50;99.90;;;;;;5069065;28;20343;-70
2022/10/13 08:28:56;;;;;;;9.15;6.47;;;20.30;99.90;;;;;;5069846;28;20114;-71
2022/10/13 08:31:30;;;;;;;8.57;6.93;;;20.40;99.90;;;;;;5085028;28;20044;-73
2022/10/13 08:33:58;;;;;;;8.27;6.28;;;20.40;99.90;;;;;;5084871;28;20064;-73
2022/10/13 08:36:25;;;;;;;7.97;5.55;;;20.60;99.90;;;;;;5051293;28;20057;-74
2022/10/13 08:38:53;;;;;;;7.80;5.47;;;20.70;99.90;;;;;;5065995;28;20056;-72
2022/10/13 08:41:44;;;;;;;9.00;5.57;;;20.70;99.90;;;;;;5032984;28;20428;-71
2022/10/13 08:44:29;;;;;;;6.68;4.40;;;20.70;99.90;;;;;;5032034;28;20041;-72
2022/10/13 08:47:51;;;;;;;6.95;5.10;;;20.80;99.90;;;;;;5065651;28;20189;-72
2022/10/13 08:50:22;;;;;;;6.70;5.32;;;21.00;99.90;;;;;;5022857;28;20110;-73
2022/10/13 08:52:56;;;;;;;9.27;5.53;;;21.10;99.90;;;;;;5065217;28;20443;-72
2022/10/13 08:56:03;;;;;;;10.45;5.55;;;21.20;99.90;;;;;;5064723;28;20040;-71
2022/10/13 08:58:34;;;;;;;7.88;5.05;;;21.10;99.90;;;;;;4984294;28;20524;-73
2022/10/13 09:01:15;;;;;;;8.15;4.65;;;21.10;99.90;;;;;;5052306;28;20524;-73
2022/10/13 09:04:02;;;;;;;8.25;4.90;;;21.20;99.90;;;;;;5064631;28;20158;-72
2022/10/13 09:06:39;;;;;;;8.80;5.25;;;21.40;99.90;;;;;;5065036;28;20789;-72
2022/10/13 09:09:14;;;;;;;9.27;4.75;;;21.70;99.90;;;;;;5075861;28;20048;-77
2022/10/13 09:11:46;;;;;;;8.68;5.10;;;21.80;99.90;;;;;;5085381;28;20055;-71
2022/10/13 09:14:27;;;;;;;7.40;5.13;;;22.00;99.90;;;;;;5068111;28;20055;-74
2022/10/13 09:17:10;;;;;;;7.05;4.72;;;22.10;99.90;;;;;;5084996;28;20052;-71
2022/10/13 09:19:39;;;;;;;7.78;5.25;;;22.00;99.90;;;;;;5086481;28;20044;-72
2022/10/13 09:22:18;;;;;;;7.45;5.47;;;22.10;99.90;;;;;;5070231;28;20225;-72
2022/10/13 09:24:45;;;;;;;7.05;4.30;;;22.10;99.90;;;;;;5083280;28;20048;-78
2022/10/13 09:27:15;;;;;;;5.97;4.93;;;22.20;99.90;;;;;;5087395;28;20088;-71
2022/10/13 09:29:45;;;;;;;7.32;4.15;;;22.20;99.90;;;;;;5054442;28;20095;-77
2022/10/13 09:32:24;;;;;;;8.15;5.80;;;22.20;99.90;;;;;;5055074;28;20066;-71
2022/10/13 09:34:52;;;;;;;6.47;4.70;;;22.40;99.90;;;;;;5071288;28;20146;-72
2022/10/13 09:37:24;;;;;;;7.15;4.25;;;22.30;99.90;;;;;;5070731;28;20125;-71
2022/10/13 09:40:18;;;;;;;6.10;4.75;;;22.50;99.90;;;;;;5087229;28;20047;-71
2022/10/13 09:42:53;;;;;;;8.02;4.40;;;22.60;99.90;;;;;;5089057;28;20066;-75
2022/10/13 09:45:22;;;;;;;7.80;4.97;;;22.70;99.90;;;;;;5052252;28;20048;-77
2022/10/13 09:47:53;;;;;;;7.18;5.00;;;22.60;99.90;;;;;;5085126;28;20397;-72
2022/10/13 09:50:27;;;;;;;6.57;4.53;;;22.50;99.90;;;;;;5068407;28;20920;-72
2022/10/13 09:53:09;;;;;;;5.38;4.22;;;22.60;99.90;;;;;;5084939;28;20063;-75
2022/10/13 09:55:37;;;;;;;7.00;4.97;;;22.70;99.90;;;;;;5070058;28;20046;-72
2022/10/13 09:58:13;;;;;;;6.30;4.20;;;22.60;99.90;;;;;;5085417;28;20089;-74
2022/10/13 10:00:42;;;;;;;7.78;4.65;;;22.50;99.90;;;;;;5086645;28;20040;-73
2022/10/13 10:03:22;;;;;;;5.53;4.53;;;22.30;99.90;;;;;;5063798;28;20082;-86
2022/10/13 10:05:54;;;;;;;9.00;4.43;;;22.10;99.90;;;;;;5066570;28;20135;-72
2022/10/13 10:08:48;;;;;;;7.70;4.30;;;21.80;99.90;;;;;;5067173;28;20052;-72
2022/10/13 10:11:38;;;;;;;7.00;4.20;;;21.60;99.90;;;;;;5050694;28;20041;-72
2022/10/13 10:14:13;;;;;;;9.43;5.25;;;21.60;99.90;;;;;;4689358;28;21094;-73
2022/10/13 10:16:47;;;;;;;6.68;4.40;;;21.40;99.90;;;;;;4809252;28;20051;-72
2022/10/13 10:19:25;;;;;;;8.13;5.05;;;21.30;99.90;;;;;;5085249;28;20078;-72
2022/10/13 10:22:10;;;;;;;5.68;4.28;;;21.40;99.90;;;;;;5071971;28;20048;-75
2022/10/13 10:24:52;;;;;;;6.18;4.20;;;21.40;99.90;;;;;;5090604;28;20392;-78
2022/10/13 10:27:25;;;;;;;7.28;4.97;;;21.40;99.90;;;;;;5089332;28;20569;-74
2022/10/13 10:30:12;;;;;;;7.57;4.60;;;21.40;99.90;;;;;;5089345;28;20058;-73
2022/10/13 10:32:55;;;;;;;6.70;5.20;;;21.50;99.90;;;;;;5072655;28;20063;-76
2022/10/13 10:36:18;;;;;;;8.38;5.50;;;21.50;99.90;;;;;;5087646;28;20073;-80
2022/10/13 10:39:18;;;;;;;6.90;5.05;;;21.40;99.90;;;;;;5007199;28;20081;-78
2022/10/13 10:41:59;;;;;;;9.43;5.78;;;21.30;99.90;;;;;;5071430;28;20052;-80
2022/10/13 10:44:48;;;;;;;6.25;4.50;;;21.30;99.90;;;;;;5072948;28;20510;-72
2022/10/13 10:47:24;;;;;;;12.50;6.13;;;21.30;99.90;;;;;;5055594;28;20134;-72
2022/10/13 10:49:59;;;;;;;7.53;5.68;;;21.30;99.90;;;;;;5088495;28;20494;-73
2022/10/13 10:52:55;;;;;;;7.03;4.80;;;21.30;99.90;;;;;;5068012;28;20098;-72
2022/10/13 10:55:38;;;;;;;10.30;5.20;;;21.20;99.90;;;;;;5069404;28;20427;-74
2022/10/13 10:58:11;;;;;;;7.47;5.75;;;21.10;99.90;;;;;;5068383;28;20548;-75
2022/10/13 11:00:50;;;;;;;9.13;6.22;;;21.10;99.90;;;;;;5065915;28;20539;-72
2022/10/13 11:03:39;;;;;;;9.05;5.53;;;21.20;99.90;;;;;;5056121;28;20063;-80
2022/10/13 11:06:17;;;;;;;9.38;5.78;;;21.10;99.90;;;;;;5077658;28;20136;-72
2022/10/13 11:08:47;;;;;;;8.20;5.80;;;21.00;99.90;;;;;;5091646;28;20135;-73
2022/10/13 11:11:27;;;;;;;8.98;5.90;;;21.00;99.90;;;;;;5068135;28;20055;-73
2022/10/13 11:14:06;;;;;;;10.85;6.90;;;20.90;99.90;;;;;;5064913;28;20064;-73
2022/10/13 11:16:39;;;;;;;9.70;5.70;;;20.80;99.90;;;;;;5096295;28;20446;-74
2022/10/13 11:19:33;;;;;;;8.23;5.22;;;20.80;99.90;;;;;;5090965;28;20135;-74
2022/10/13 11:22:00;;;;;;;9.13;5.82;;;20.80;99.90;;;;;;5086148;28;20155;-72
2022/10/13 11:24:35;;;;;;;6.50;4.72;;;20.70;99.90;;;;;;5094701;28;20059;-74
2022/10/13 11:27:18;;;;;;;8.47;6.17;;;20.60;99.90;;;;;;5073599;28;20517;-73
2022/10/13 11:29:47;;;;;;;10.13;6.07;;;20.50;99.90;;;;;;5077735;28;20044;-72
2022/10/13 11:32:24;;;;;;;8.07;5.53;;;20.50;99.90;;;;;;5083026;28;20039;-75
2022/10/13 11:35:19;;;;;;;9.50;5.30;;;20.50;99.90;;;;;;5079191;28;20146;-74
2022/10/13 11:37:56;;;;;;;8.82;4.72;;;20.40;99.90;;;;;;5098428;28;20398;-73
2022/10/13 11:40:55;;;;;;;6.57;4.82;;;20.40;99.90;;;;;;5054962;28;20140;-73
2022/10/13 11:43:48;;;;;;;7.60;4.80;;;20.40;99.90;;;;;;5080189;28;20059;-73
2022/10/13 11:46:37;;;;;;;8.07;6.40;;;20.40;99.90;;;;;;5065422;28;20047;-76
2022/10/13 11:49:27;;;;;;;8.63;5.95;;;20.40;99.90;;;;;;5091585;28;20055;-73
2022/10/13 11:52:22;;;;;;;7.30;5.38;;;20.30;99.90;;;;;;5055916;28;20070;-76
2022/10/13 11:55:00;;;;;;;7.95;5.10;;;20.30;99.90;;;;;;5059504;28;20047;-73
2022/10/13 11:57:31;;;;;;;7.45;5.13;;;20.20;99.90;;;;;;5050184;28;20075;-74
2022/10/13 12:00:02;;;;;;;9.05;5.85;;;20.10;99.90;;;;;;5075116;28;20052;-75
2022/10/13 12:02:49;;;;;;;8.52;6.00;;;20.10;99.90;;;;;;5063474;28;20074;-74
2022/10/13 12:05:24;;;;;;;12.38;6.72;;;20.10;99.90;;;;;;5067059;28;20161;-73
2022/10/13 12:08:00;;;;;;;9.82;5.80;;;20.10;99.90;;;;;;5076708;28;20036;-73
2022/10/13 12:10:34;;;;;;;8.13;5.80;;;20.10;99.90;;;;;;5061338;28;20150;-71
2022/10/13 12:13:03;;;;;;;12.90;6.40;;;20.10;99.90;;;;;;5083940;28;20038;-73
2022/10/13 12:15:38;;;;;;;10.93;7.00;;;20.10;99.90;;;;;;5067811;28;20036;-74
2022/10/13 12:18:26;;;;;;;7.55;4.88;;;20.00;99.90;;;;;;5076192;28;20044;-76
2022/10/13 12:20:56;;;;;;;9.52;6.40;;;19.90;99.90;;;;;;5072871;28;20055;-74
2022/10/13 12:23:25;;;;;;;9.82;6.70;;;19.90;99.90;;;;;;5087656;28;20048;-72
2022/10/13 12:25:57;;;;;;;9.15;6.05;;;19.80;99.90;;;;;;5070713;28;20048;-72
2022/10/13 12:28:29;;;;;;;11.35;6.10;;;19.80;99.90;;;;;;5059738;28;20044;-76
2022/10/13 12:30:59;;;;;;;8.13;6.75;;;19.80;99.90;;;;;;5071770;28;20036;-73
2022/10/13 12:33:30;;;;;;;10.10;6.20;;;19.80;99.90;;;;;;5076406;28;20049;-73
2022/10/13 12:36:17;;;;;;;13.07;6.18;;;19.80;99.90;;;;;;5069273;28;20040;-77
2022/10/13 12:38:49;;;;;;;7.20;5.43;;;19.90;99.90;;;;;;5068367;28;20131;-72
2022/10/13 12:41:28;;;;;;;9.63;6.00;;;19.90;99.90;;;;;;5063040;28;20479;-72
2022/10/13 12:43:56;;;;;;;8.00;6.35;;;20.00;99.90;;;;;;5057629;28;20095;-74
2022/10/13 12:46:41;;;;;;;8.52;6.20;;;20.00;99.90;;;;;;5050824;28;20616;-74
2022/10/13 12:49:25;;;;;;;10.55;7.07;;;20.10;99.90;;;;;;5074038;28;20048;-73
2022/10/13 12:52:06;;;;;;;11.60;7.18;;;20.10;99.90;;;;;;5054581;28;20060;-74
2022/10/13 12:54:37;;;;;;;7.75;5.90;;;20.10;99.90;;;;;;5060597;28;20051;-73
2022/10/13 12:57:19;;;;;;;9.52;6.35;;;20.10;99.90;;;;;;5085095;28;20036;-72
2022/10/13 12:59:48;;;;;;;9.93;6.15;;;20.00;99.90;;;;;;5055013;28;20071;-72
2022/10/13 13:02:24;;;;;;;11.55;5.47;;;20.00;99.90;;;;;;5041566;28;20057;-72
2022/10/13 13:04:53;;;;;;;11.70;6.43;;;20.00;99.90;;;;;;5080920;28;20375;-81
2022/10/13 13:07:35;;;;;;;9.00;6.07;;;19.90;99.90;;;;;;5059478;28;20063;-72
2022/10/13 13:10:06;;;;;;;8.50;5.18;;;19.90;99.90;;;;;;5067489;28;20047;-73
2022/10/13 13:12:36;;;;;;;8.27;5.57;;;19.90;99.90;;;;;;5061041;28;20063;-72
2022/10/13 13:15:35;;;;;;;10.30;6.65;;;19.80;99.90;;;;;;5054849;28;20450;-74
2022/10/13 13:18:22;;;;;;;8.45;6.35;;;19.80;99.90;;;;;;5059577;28;20084;-76
2022/10/13 13:20:49;;;;;;;;;;;19.90;99.90;;;;;;5065368;28;20047;-73